sensor_id;sensor_type;location;lat;lon;timestamp;pressure;altitude;pressure_sealevel;temperature;humidity
56414;BME280;42318;48.452;19.526;2022-10-17T00:06:58;99605.63;;;19.32;56.99
56414;BME280;42318;48.452;19.526;2022-10-17T00:14:28;99620.88;;;19.33;56.95
56414;BME280;42318;48.452;19.526;2022-10-17T00:21:59;99625.69;;;19.31;57.15
56414;BME280;42318;48.452;19.526;2022-10-17T00:29:30;99615.72;;;19.25;57.03
56414;BME280;42318;48.452;19.526;2022-10-17T00:37:01;99620.78;;;19.21;57.23
56414;BME280;42318;48.452;19.526;2022-10-17T00:52:05;99606.88;;;19.11;57.25
56414;BME280;42318;48.452;19.526;2022-10-17T00:59:39;99599.19;;;19.01;57.82
56414;BME280;42318;48.452;19.526;2022-10-17T01:07:11;99607.94;;;19.03;57.53
56414;BME280;42318;48.452;19.526;2022-10-17T01:22:36;99607.78;;;18.98;57.75
56414;BME280;42318;48.452;19.526;2022-10-17T01:30:28;99587.25;;;18.84;57.91
56414;BME280;42318;48.452;19.526;2022-10-17T01:38:09;99613.06;;;18.93;57.96
56414;BME280;42318;48.452;19.526;2022-10-17T01:45:51;99614.78;;;18.88;58.10
56414;BME280;42318;48.452;19.526;2022-10-17T01:53:27;99621.47;;;18.85;57.90
56414;BME280;42318;48.452;19.526;2022-10-17T02:01:02;99627.31;;;18.89;57.94
56414;BME280;42318;48.452;19.526;2022-10-17T02:31:53;99630.47;;;18.86;58.17
56414;BME280;42318;48.452;19.526;2022-10-17T02:39:27;99636.13;;;18.84;58.01
56414;BME280;42318;48.452;19.526;2022-10-17T02:47:24;99620.50;;;18.79;58.05
56414;BME280;42318;48.452;19.526;2022-10-17T02:55:11;99625.91;;;18.79;58.02
56414;BME280;42318;48.452;19.526;2022-10-17T03:02:51;99632.19;;;18.80;58.05
56414;BME280;42318;48.452;19.526;2022-10-17T03:10:22;99643.88;;;18.80;58.08
56414;BME280;42318;48.452;19.526;2022-10-17T03:17:53;99646.81;;;18.79;58.35
56414;BME280;42318;48.452;19.526;2022-10-17T03:25:24;99651.63;;;18.77;58.32
56414;BME280;42318;48.452;19.526;2022-10-17T03:32:59;99655.19;;;18.77;58.08
56414;BME280;42318;48.452;19.526;2022-10-17T03:40:30;99662.28;;;18.78;58.04
56414;BME280;42318;48.452;19.526;2022-10-17T03:48:00;99667.31;;;18.75;58.36
56414;BME280;42318;48.452;19.526;2022-10-17T03:55:31;99661.69;;;18.70;58.19
56414;BME280;42318;48.452;19.526;2022-10-17T04:03:02;99669.00;;;18.69;58.34
56414;BME280;42318;48.452;19.526;2022-10-17T04:10:32;99688.19;;;18.74;58.26
56414;BME280;42318;48.452;19.526;2022-10-17T04:18:03;99679.25;;;18.67;58.35
56414;BME280;42318;48.452;19.526;2022-10-17T04:25:34;99701.16;;;18.72;58.21
56414;BME280;42318;48.452;19.526;2022-10-17T04:33:04;99704.53;;;18.68;58.17
56414;BME280;42318;48.452;19.526;2022-10-17T04:40:35;99707.84;;;18.70;58.22
56414;BME280;42318;48.452;19.526;2022-10-17T04:48:06;99715.78;;;18.71;58.28
56414;BME280;42318;48.452;19.526;2022-10-17T04:55:37;99718.72;;;18.70;58.44
56414;BME280;42318;48.452;19.526;2022-10-17T05:03:08;99722.47;;;18.69;58.59
56414;BME280;42318;48.452;19.526;2022-10-17T05:10:41;99735.00;;;18.70;58.52
56414;BME280;42318;48.452;19.526;2022-10-17T05:18:12;99740.66;;;18.68;58.41
56414;BME280;42318;48.452;19.526;2022-10-17T05:25:43;99739.81;;;18.68;58.21
56414;BME280;42318;48.452;19.526;2022-10-17T05:33:14;99761.31;;;18.69;58.25
56414;BME280;42318;48.452;19.526;2022-10-17T05:40:45;99768.63;;;18.69;58.45
56414;BME280;42318;48.452;19.526;2022-10-17T05:48:15;99775.72;;;18.70;58.11
56414;BME280;42318;48.452;19.526;2022-10-17T05:55:57;99776.78;;;18.69;58.37
56414;BME280;42318;48.452;19.526;2022-10-17T06:03:28;99792.63;;;18.72;58.46
56414;BME280;42318;48.452;19.526;2022-10-17T06:10:59;99811.63;;;18.72;58.13
56414;BME280;42318;48.452;19.526;2022-10-17T06:18:30;99806.66;;;18.69;58.34
56414;BME280;42318;48.452;19.526;2022-10-17T06:26:03;99827.50;;;18.75;58.33
56414;BME280;42318;48.452;19.526;2022-10-17T06:33:34;99833.75;;;18.75;58.34
56414;BME280;42318;48.452;19.526;2022-10-17T06:41:07;99837.72;;;18.79;58.28
56414;BME280;42318;48.452;19.526;2022-10-17T06:48:39;99842.50;;;18.84;58.47
56414;BME280;42318;48.452;19.526;2022-10-17T06:56:10;99850.81;;;18.89;58.22
56414;BME280;42318;48.452;19.526;2022-10-17T07:03:40;99847.81;;;19.04;57.95
56414;BME280;42318;48.452;19.526;2022-10-17T07:11:15;99856.59;;;19.12;57.46
56414;BME280;42318;48.452;19.526;2022-10-17T07:18:48;99860.72;;;19.22;57.52
56414;BME280;42318;48.452;19.526;2022-10-17T07:26:19;99862.78;;;19.26;57.40
56414;BME280;42318;48.452;19.526;2022-10-17T07:33:50;99867.38;;;19.26;57.49
56414;BME280;42318;48.452;19.526;2022-10-17T07:41:21;99861.16;;;19.19;57.34
56414;BME280;42318;48.452;19.526;2022-10-17T07:48:52;99880.34;;;19.24;57.37
56414;BME280;42318;48.452;19.526;2022-10-17T07:56:22;99882.22;;;19.23;58.18
56414;BME280;42318;48.452;19.526;2022-10-17T08:03:54;99861.97;;;19.19;58.94
56414;BME280;42318;48.452;19.526;2022-10-17T08:11:24;99876.16;;;19.28;59.64
56414;BME280;42318;48.452;19.526;2022-10-17T08:18:55;99870.50;;;19.29;60.53
56414;BME280;42318;48.452;19.526;2022-10-17T08:26:26;99877.59;;;19.30;59.99
56414;BME280;42318;48.452;19.526;2022-10-17T08:33:56;99874.03;;;19.30;60.20
56414;BME280;42318;48.452;19.526;2022-10-17T08:42:11;99874.03;;;19.30;60.10
56414;BME280;42318;48.452;19.526;2022-10-17T08:49:44;99871.09;;;19.31;60.09
56414;BME280;42318;48.452;19.526;2022-10-17T08:57:18;99869.25;;;19.25;60.23
56414;BME280;42318;48.452;19.526;2022-10-17T09:05:23;99875.72;;;19.31;59.89
56414;BME280;42318;48.452;19.526;2022-10-17T09:21:16;99881.75;;;19.33;59.46
56414;BME280;42318;48.452;19.526;2022-10-17T09:28:54;99874.44;;;19.33;59.53
56414;BME280;42318;48.452;19.526;2022-10-17T09:36:31;99885.91;;;19.35;59.32
56414;BME280;42318;48.452;19.526;2022-10-17T09:44:14;99887.59;;;19.36;59.05
56414;BME280;42318;48.452;19.526;2022-10-17T09:51:46;99889.25;;;19.37;59.01
56414;BME280;42318;48.452;19.526;2022-10-17T09:59:30;99881.09;;;19.37;58.94
56414;BME280;42318;48.452;19.526;2022-10-17T10:07:04;99868.13;;;19.39;59.12
56414;BME280;42318;48.452;19.526;2022-10-17T10:14:36;99871.47;;;19.41;59.24
56414;BME280;42318;48.452;19.526;2022-10-17T10:22:16;99880.44;;;19.42;58.91
56414;BME280;42318;48.452;19.526;2022-10-17T10:29:51;99875.63;;;19.44;58.83
56414;BME280;42318;48.452;19.526;2022-10-17T10:37:25;99878.97;;;19.46;59.14
56414;BME280;42318;48.452;19.526;2022-10-17T10:45:02;99861.81;;;19.45;58.94
56414;BME280;42318;48.452;19.526;2022-10-17T11:00:36;99857.59;;;19.50;59.10
56414;BME280;42318;48.452;19.526;2022-10-17T11:08:16;99841.09;;;19.51;58.91
56414;BME280;42318;48.452;19.526;2022-10-17T11:15:56;99841.09;;;19.51;58.86
56414;BME280;42318;48.452;19.526;2022-10-17T11:23:37;99841.94;;;19.52;58.81
56414;BME280;42318;48.452;19.526;2022-10-17T11:31:12;99826.25;;;19.47;58.78
56414;BME280;42318;48.452;19.526;2022-10-17T11:38:49;99830.88;;;19.53;58.98
56414;BME280;42318;48.452;19.526;2022-10-17T11:46:23;99821.66;;;19.54;59.16
56414;BME280;42318;48.452;19.526;2022-10-17T11:54:01;99826.28;;;19.54;58.64
56414;BME280;42318;48.452;19.526;2022-10-17T12:16:51;99804.72;;;19.52;58.99
56414;BME280;42318;48.452;19.526;2022-10-17T12:24:33;99805.13;;;19.56;58.39
56414;BME280;42318;48.452;19.526;2022-10-17T12:32:11;99797.19;;;19.54;58.79
56414;BME280;42318;48.452;19.526;2022-10-17T12:39:42;99800.53;;;19.56;60.44
56414;BME280;42318;48.452;19.526;2022-10-17T12:47:36;99803.63;;;19.60;60.41
56414;BME280;42318;48.452;19.526;2022-10-17T12:55:16;99792.38;;;19.56;60.50
56414;BME280;42318;48.452;19.526;2022-10-17T13:02:49;99786.03;;;19.62;60.46
56414;BME280;42318;48.452;19.526;2022-10-17T13:10:27;99776.22;;;19.61;61.80
56414;BME280;42318;48.452;19.526;2022-10-17T13:18:00;99789.38;;;19.64;61.71
56414;BME280;42318;48.452;19.526;2022-10-17T13:25:31;99785.59;;;19.65;62.73
56414;BME280;42318;48.452;19.526;2022-10-17T13:33:02;99784.75;;;19.65;62.38
56414;BME280;42318;48.452;19.526;2022-10-17T13:40:39;99782.44;;;19.68;61.38
56414;BME280;42318;48.452;19.526;2022-10-17T13:48:18;99779.25;;;19.71;60.97
56414;BME280;42318;48.452;19.526;2022-10-17T13:55:54;99765.88;;;19.70;62.46
56414;BME280;42318;48.452;19.526;2022-10-17T14:03:25;99775.94;;;19.69;62.56
56414;BME280;42318;48.452;19.526;2022-10-17T14:10:56;99777.22;;;19.67;61.70
56414;BME280;42318;48.452;19.526;2022-10-17T14:18:29;99782.03;;;19.65;62.75
56414;BME280;42318;48.452;19.526;2022-10-17T14:26:09;99781.66;;;19.61;62.88
56414;BME280;42318;48.452;19.526;2022-10-17T14:33:45;99780.44;;;19.57;62.75
56414;BME280;42318;48.452;19.526;2022-10-17T14:41:26;99781.50;;;19.56;62.92
56414;BME280;42318;48.452;19.526;2022-10-17T14:49:04;99788.22;;;19.54;62.97
56414;BME280;42318;48.452;19.526;2022-10-17T14:56:39;99785.69;;;19.52;62.42
56414;BME280;42318;48.452;19.526;2022-10-17T15:04:10;99784.22;;;19.56;62.80
56414;BME280;42318;48.452;19.526;2022-10-17T15:11:41;99792.53;;;19.61;62.48
56414;BME280;42318;48.452;19.526;2022-10-17T15:19:12;99789.97;;;19.66;62.64
56414;BME280;42318;48.452;19.526;2022-10-17T15:26:43;99786.22;;;19.67;61.93
56414;BME280;42318;48.452;19.526;2022-10-17T15:34:14;99792.88;;;19.71;61.67
56414;BME280;42318;48.452;19.526;2022-10-17T15:41:45;99795.13;;;19.74;61.83
56414;BME280;42318;48.452;19.526;2022-10-17T15:49:17;99802.84;;;19.77;61.29
56414;BME280;42318;48.452;19.526;2022-10-17T15:56:53;99806.41;;;19.78;61.32
56414;BME280;42318;48.452;19.526;2022-10-17T16:04:24;99816.00;;;19.81;61.32
56414;BME280;42318;48.452;19.526;2022-10-17T16:11:56;99821.00;;;19.84;60.87
56414;BME280;42318;48.452;19.526;2022-10-17T16:19:27;99828.09;;;19.85;60.67
56414;BME280;42318;48.452;19.526;2022-10-17T16:26:59;99811.22;;;19.76;60.66
56414;BME280;42318;48.452;19.526;2022-10-17T16:34:30;99832.25;;;19.87;60.67
56414;BME280;42318;48.452;19.526;2022-10-17T16:42:01;99823.03;;;19.88;60.19
56414;BME280;42318;48.452;19.526;2022-10-17T16:49:32;99825.75;;;19.88;60.53
56414;BME280;42318;48.452;19.526;2022-10-17T16:57:03;99814.66;;;19.90;60.26
56414;BME280;42318;48.452;19.526;2022-10-17T17:04:34;99830.53;;;19.93;59.99
56414;BME280;42318;48.452;19.526;2022-10-17T17:12:05;99827.66;;;19.88;60.23
56414;BME280;42318;48.452;19.526;2022-10-17T17:19:35;99832.19;;;19.94;60.27
56414;BME280;42318;48.452;19.526;2022-10-17T17:27:06;99829.69;;;19.92;60.04
56414;BME280;42318;48.452;19.526;2022-10-17T17:34:37;99836.81;;;19.93;59.83
56414;BME280;42318;48.452;19.526;2022-10-17T17:42:07;99841.81;;;19.96;60.40
56414;BME280;42318;48.452;19.526;2022-10-17T17:49:38;99839.09;;;19.96;60.27
56414;BME280;42318;48.452;19.526;2022-10-17T17:57:09;99842.66;;;19.97;59.90
56414;BME280;42318;48.452;19.526;2022-10-17T18:04:40;99840.78;;;19.97;59.83
56414;BME280;42318;48.452;19.526;2022-10-17T18:12:10;99836.16;;;19.98;59.78
56414;BME280;42318;48.452;19.526;2022-10-17T18:19:41;99829.69;;;19.92;59.77
56414;BME280;42318;48.452;19.526;2022-10-17T18:27:12;99836.38;;;19.96;59.66
56414;BME280;42318;48.452;19.526;2022-10-17T18:34:45;99837.84;;;19.99;59.85
56414;BME280;42318;48.452;19.526;2022-10-17T18:42:17;99849.31;;;20.01;59.61
56414;BME280;42318;48.452;19.526;2022-10-17T18:49:47;99837.59;;;20.00;59.27
56414;BME280;42318;48.452;19.526;2022-10-17T18:57:18;99837.38;;;20.02;59.31
56414;BME280;42318;48.452;19.526;2022-10-17T19:04:49;99835.09;;;19.99;59.17
56414;BME280;42318;48.452;19.526;2022-10-17T19:12:19;99844.72;;;20.01;59.05
56414;BME280;42318;48.452;19.526;2022-10-17T19:19:50;99843.88;;;20.01;59.05
56414;BME280;42318;48.452;19.526;2022-10-17T19:27:22;99844.72;;;20.01;58.99
56414;BME280;42318;48.452;19.526;2022-10-17T19:34:53;99848.50;;;20.00;59.14
56414;BME280;42318;48.452;19.526;2022-10-17T19:42:23;99843.03;;;20.00;59.26
56414;BME280;42318;48.452;19.526;2022-10-17T19:49:54;99847.66;;;20.00;58.97
56414;BME280;42318;48.452;19.526;2022-10-17T19:57:25;99858.53;;;20.00;58.91
56414;BME280;42318;48.452;19.526;2022-10-17T20:04:55;99851.22;;;20.00;58.79
56414;BME280;42318;48.452;19.526;2022-10-17T20:12:26;99856.44;;;20.02;58.97
56414;BME280;42318;48.452;19.526;2022-10-17T20:19:57;99847.66;;;20.00;58.94
56414;BME280;42318;48.452;19.526;2022-10-17T20:27:28;99847.66;;;20.00;58.65
56414;BME280;42318;48.452;19.526;2022-10-17T20:34:59;99850.97;;;20.02;59.13
56414;BME280;42318;48.452;19.526;2022-10-17T20:42:30;99853.94;;;20.00;58.99
56414;BME280;42318;48.452;19.526;2022-10-17T20:50:01;99850.97;;;20.02;58.49
56414;BME280;42318;48.452;19.526;2022-10-17T20:57:31;99844.94;;;20.00;58.64
56414;BME280;42318;48.452;19.526;2022-10-17T21:05:02;99837.84;;;19.99;58.88
56414;BME280;42318;48.452;19.526;2022-10-17T21:12:33;99836.16;;;19.98;58.66
56414;BME280;42318;48.452;19.526;2022-10-17T21:20:04;99835.09;;;19.99;58.57
56414;BME280;42318;48.452;19.526;2022-10-17T21:27:35;99830.50;;;19.99;58.57
56414;BME280;42318;48.452;19.526;2022-10-17T21:35:06;99832.16;;;20.00;58.45
56414;BME280;42318;48.452;19.526;2022-10-17T21:42:37;99824.22;;;19.99;58.85
56414;BME280;42318;48.452;19.526;2022-10-17T21:50:08;99822.56;;;19.98;58.37
56414;BME280;42318;48.452;19.526;2022-10-17T21:57:38;99822.38;;;19.93;58.47
56414;BME280;42318;48.452;19.526;2022-10-17T22:05:09;99808.84;;;19.86;58.72
56414;BME280;42318;48.452;19.526;2022-10-17T22:12:40;99816.38;;;19.84;58.55
56414;BME280;42318;48.452;19.526;2022-10-17T22:20:11;99814.34;;;19.80;58.59
56414;BME280;42318;48.452;19.526;2022-10-17T22:27:41;99785.97;;;19.69;58.66
56414;BME280;42318;48.452;19.526;2022-10-17T22:35:12;99803.97;;;19.70;58.96
56414;BME280;42318;48.452;19.526;2022-10-17T22:42:43;99798.97;;;19.67;58.97
56414;BME280;42318;48.452;19.526;2022-10-17T22:50:14;99791.25;;;19.64;58.78
56414;BME280;42318;48.452;19.526;2022-10-17T22:57:44;99785.44;;;19.60;59.00
56414;BME280;42318;48.452;19.526;2022-10-17T23:05:15;99783.53;;;19.61;58.81
56414;BME280;42318;48.452;19.526;2022-10-17T23:12:46;99779.38;;;19.58;58.86
56414;BME280;42318;48.452;19.526;2022-10-17T23:20:16;99768.94;;;19.55;58.90
56414;BME280;42318;48.452;19.526;2022-10-17T23:27:47;99761.84;;;19.48;59.29
56414;BME280;42318;48.452;19.526;2022-10-17T23:35:18;99768.56;;;19.45;59.07
56414;BME280;42318;48.452;19.526;2022-10-17T23:42:49;99755.81;;;19.45;59.05
56414;BME280;42318;48.452;19.526;2022-10-17T23:50:19;99768.72;;;19.50;58.94
56414;BME280;42318;48.452;19.526;2022-10-17T23:57:50;99760.78;;;19.49;59.33
